Time;durP1;ratioP1;P1;durP2;ratioP2;P2;SDS_P1;SDS_P2;PMS_P1;PMS_P2;Temp;Humidity;BMP_temperature;BMP_pressure;BME280_temperature;BME280_humidity;BME280_pressure;Samples;Min_cycle;Max_cycle;Signal;HPM_P1;HPM_P2
2022/04/23 00:01:21;;;;;;;52.88;29.15;;;;;;;3.57;70.72;100161.35;1770501;80;21523;-70
2022/04/23 00:03:47;;;;;;;59.18;28.73;;;;;;;3.50;70.81;100156.61;1770646;81;21104;-70
2022/04/23 00:06:14;;;;;;;70.25;33.65;;;;;;;3.43;70.92;100155.47;1744482;80;21267;-69
2022/04/23 00:08:40;;;;;;;70.55;31.20;;;;;;;3.36;70.99;100157.42;1739987;82;20984;-70
2022/04/23 00:11:06;;;;;;;108.22;43.92;;;;;;;3.29;71.08;100149.20;1739656;82;21024;-69
2022/04/23 00:13:32;;;;;;;136.70;52.50;;;;;;;3.26;71.18;100149.47;1742437;82;21027;-69
2022/04/23 00:15:58;;;;;;;96.32;42.17;;;;;;;3.25;71.24;100151.75;1743436;82;21055;-69
2022/04/23 00:18:24;;;;;;;91.25;39.90;;;;;;;3.21;71.33;100154.28;1746466;80;21197;-69
2022/04/23 00:20:50;;;;;;;99.35;42.27;;;;;;;3.15;71.41;100156.13;1742896;82;21006;-69
2022/04/23 00:23:16;;;;;;;81.35;38.17;;;;;;;3.13;71.49;100152.77;1742842;82;21045;-69
2022/04/23 00:25:45;;;;;;;96.32;41.18;;;;;;;3.10;71.57;100153.02;1742555;82;21017;-70
2022/04/23 00:28:11;;;;;;;79.37;38.05;;;;;;;3.05;71.64;100149.95;1742540;81;21049;-69
2022/04/23 00:30:38;;;;;;;88.37;39.92;;;;;;;3.00;71.74;100153.45;1743052;82;21102;-69
2022/04/23 00:33:04;;;;;;;92.33;39.30;;;;;;;2.94;71.82;100152.64;1755785;80;20994;-69
2022/04/23 00:35:31;;;;;;;111.03;47.25;;;;;;;2.91;71.90;100151.59;1755576;80;20988;-69
2022/04/23 00:37:57;;;;;;;112.90;51.37;;;;;;;2.86;71.98;100151.12;1742985;82;21024;-69
2022/04/23 00:40:24;;;;;;;107.05;46.73;;;;;;;2.83;72.07;100150.06;1751527;80;20974;-69
2022/04/23 00:42:55;;;;;;;97.30;43.08;;;;;;;2.81;72.14;100157.27;1773987;80;21813;-69
2022/04/23 00:45:21;;;;;;;;;;;;;;;2.71;72.21;100157.67;1775918;80;21022;-70
2022/04/23 00:47:48;;;;;;;103.92;46.20;;;;;;;2.60;72.29;100141.91;1767846;80;20476;-69
2022/04/23 00:50:14;;;;;;;110.28;51.00;;;;;;;2.47;72.40;100146.01;1747416;80;21027;-69
2022/04/23 00:52:39;;;;;;;111.70;50.15;;;;;;;2.44;72.46;100147.10;1774028;80;20990;-69
2022/04/23 00:55:07;;;;;;;113.55;49.35;;;;;;;2.37;72.51;100144.61;1773790;80;21902;-69
2022/04/23 00:57:33;;;;;;;101.78;46.70;;;;;;;2.37;72.58;100147.72;1773190;80;21034;-70
2022/04/23 01:00:02;;;;;;;109.90;48.63;;;;;;;2.33;72.65;100141.87;1773976;80;21045;-71
2022/04/23 01:02:28;;;;;;;101.27;47.08;;;;;;;2.31;72.74;100141.17;1773718;80;20998;-70
2022/04/23 01:04:54;;;;;;;102.65;45.75;;;;;;;2.27;72.84;100141.53;1762202;80;21096;-69
2022/04/23 01:07:21;;;;;;;97.72;45.60;;;;;;;2.26;72.90;100142.48;1742945;82;21444;-69
2022/04/23 01:09:48;;;;;;;98.65;46.40;;;;;;;2.24;72.99;100140.47;1742824;82;20979;-70
2022/04/23 01:12:15;;;;;;;100.25;45.08;;;;;;;2.19;73.07;100138.20;1755996;79;22458;-69
2022/04/23 01:15:11;;;;;;;104.45;47.23;;;;;;;2.20;73.13;100143.82;1776047;79;21016;-69
2022/04/23 01:17:37;;;;;;;91.37;44.75;;;;;;;2.19;73.21;100143.45;1759188;80;21015;-69
2022/04/23 01:20:14;;;;;;;97.42;44.75;;;;;;;2.17;73.29;100136.18;1758035;81;21663;-69
2022/04/23 01:22:42;;;;;;;101.18;45.70;;;;;;;2.14;73.36;100140.38;1758262;81;20993;-69
2022/04/23 01:25:10;;;;;;;94.42;44.65;;;;;;;2.14;73.45;100136.91;1758405;81;21024;-69
2022/04/23 01:27:36;;;;;;;93.97;43.87;;;;;;;2.07;73.51;100129.98;1758541;81;21052;-69
2022/04/23 01:30:04;;;;;;;87.88;44.48;;;;;;;2.05;73.58;100129.26;1719073;80;20995;-69
2022/04/23 01:32:30;;;;;;;78.33;39.80;;;;;;;2.01;73.66;100134.40;1789723;80;21816;-69
2022/04/23 01:34:56;;;;;;;81.08;39.45;;;;;;;1.94;73.73;100131.42;1778581;80;21052;-69
2022/04/23 01:37:22;;;;;;;83.22;41.37;;;;;;;1.93;73.79;100130.25;1758386;81;21000;-69
2022/04/23 01:39:48;;;;;;;72.85;36.40;;;;;;;1.85;73.86;100135.27;1758557;81;21013;-70
2022/04/23 01:42:17;;;;;;;73.80;36.80;;;;;;;1.75;73.92;100137.80;1758307;81;21044;-69
2022/04/23 01:44:42;;;;;;;68.80;36.28;;;;;;;1.71;73.97;100131.58;1758700;81;21197;-69
2022/04/23 01:47:08;;;;;;;74.80;38.90;;;;;;;1.73;74.03;100130.97;1758539;81;21000;-69
2022/04/23 01:49:34;;;;;;;78.92;39.88;;;;;;;1.73;74.09;100130.97;1759242;80;20905;-69
2022/04/23 01:52:00;;;;;;;64.77;32.45;;;;;;;1.74;74.14;100127.39;1758309;81;21059;-70
2022/04/23 01:54:26;;;;;;;56.00;31.10;;;;;;;1.70;74.18;100132.52;1758258;81;21520;-69
2022/04/23 01:56:52;;;;;;;50.20;28.42;;;;;;;1.65;74.28;100135.53;1758420;81;22125;-69
2022/04/23 01:59:18;;;;;;;49.65;27.85;;;;;;;1.65;74.37;100141.27;1758339;81;20972;-69
2022/04/23 02:01:44;;;;;;;46.98;28.40;;;;;;;1.63;74.42;100141.84;1758489;80;20992;-69
2022/04/23 02:04:10;;;;;;;45.58;27.87;;;;;;;1.63;74.47;100141.84;1761456;80;21001;-69
2022/04/23 02:06:37;;;;;;;60.12;31.70;;;;;;;1.61;74.53;100142.45;1758525;81;21453;-69
2022/04/23 02:09:03;;;;;;;55.83;32.53;;;;;;;1.59;74.61;100140.41;1758168;81;21163;-69
2022/04/23 02:11:29;;;;;;;64.87;38.02;;;;;;;1.58;74.66;100138.28;1758118;81;21043;-70
2022/04/23 02:13:55;;;;;;;65.75;37.70;;;;;;;1.59;74.73;100145.66;1764152;81;20985;-69
2022/04/23 02:16:21;;;;;;;62.67;35.85;;;;;;;1.54;74.77;100138.63;1767206;81;20854;-69
2022/04/23 02:18:47;;;;;;;65.08;34.53;;;;;;;1.48;74.81;100136.82;1768308;79;21074;-69
2022/04/23 02:21:13;;;;;;;49.98;29.30;;;;;;;1.43;74.87;100134.20;1775822;79;21673;-69
2022/04/23 02:23:39;;;;;;;62.13;33.10;;;;;;;1.37;74.93;100136.81;1798627;79;21011;-69
2022/04/23 02:26:05;;;;;;;55.00;32.55;;;;;;;1.32;74.98;100135.03;1798521;79;20979;-69
2022/04/23 02:28:32;;;;;;;58.42;33.55;;;;;;;1.32;75.05;100134.19;1798725;79;20851;-69
2022/04/23 02:30:58;;;;;;;60.10;33.65;;;;;;;1.35;75.12;100135.27;1760577;81;20999;-70
2022/04/23 02:33:24;;;;;;;49.23;31.37;;;;;;;1.31;75.17;100129.41;1760469;81;21189;-70
2022/04/23 02:35:50;;;;;;;59.67;37.23;;;;;;;1.30;75.23;100134.30;1739210;81;21030;-69
2022/04/23 02:38:19;;;;;;;62.45;37.40;;;;;;;1.31;75.30;100132.03;1730377;83;21555;-70
2022/04/23 02:40:45;;;;;;;56.60;35.13;;;;;;;1.31;75.35;100133.34;1760427;81;21046;-70
2022/04/23 02:43:12;;;;;;;55.30;35.75;;;;;;;1.31;75.40;100135.13;1760682;81;21010;-69
2022/04/23 02:45:39;;;;;;;57.55;34.90;;;;;;;1.31;75.45;100141.23;1760713;81;21062;-70
2022/04/23 02:48:06;;;;;;;65.35;38.75;;;;;;;1.31;75.49;100139.08;1751363;81;21014;-70
2022/04/23 02:50:37;;;;;;;64.12;38.17;;;;;;;1.31;75.55;100143.02;1703332;83;21070;-70
2022/04/23 02:53:04;;;;;;;61.65;36.30;;;;;;;1.29;75.63;100141.00;1730378;83;21540;-70
2022/04/23 02:55:35;;;;;;;53.38;35.15;;;;;;;1.30;75.67;100142.17;1730577;82;21046;-70
2022/04/23 02:58:08;;;;;;;62.75;37.58;;;;;;;1.29;75.71;100143.15;1729419;83;22124;-69
2022/04/23 03:00:35;;;;;;;70.00;42.95;;;;;;;1.27;75.75;100145.04;1729372;83;21027;-70
2022/04/23 03:03:01;;;;;;;85.00;43.10;;;;;;;1.23;75.82;100151.47;1745036;81;21061;-70
2022/04/23 03:05:27;;;;;;;80.03;43.50;;;;;;;1.20;75.85;100149.09;1743510;81;20982;-69
2022/04/23 03:07:54;;;;;;;68.97;38.60;;;;;;;1.18;75.89;100143.13;1738213;81;21054;-70
2022/04/23 03:10:20;;;;;;;70.25;39.15;;;;;;;1.13;75.94;100146.56;1760793;81;21564;-69
2022/04/23 03:12:47;;;;;;;73.35;41.63;;;;;;;1.09;75.96;100151.69;1745285;81;20987;-70
2022/04/23 03:15:17;;;;;;;71.45;41.25;;;;;;;1.08;76.02;100147.41;1751623;82;20935;-69
2022/04/23 03:17:44;;;;;;;77.70;42.23;;;;;;;1.09;76.04;100149.06;1745210;82;21066;-69
2022/04/23 03:20:12;;;;;;;76.75;43.13;;;;;;;1.06;76.08;100142.73;1708858;84;21041;-69
2022/04/23 03:22:39;;;;;;;70.22;41.92;;;;;;;1.08;76.12;100146.09;1708639;84;21007;-69
2022/04/23 03:25:08;;;;;;;77.32;43.98;;;;;;;1.08;76.15;100138.69;1709204;84;20995;-69
2022/04/23 03:27:34;;;;;;;73.47;42.90;;;;;;;1.05;76.17;100147.64;1709301;82;21079;-69
2022/04/23 03:30:00;;;;;;;75.70;45.28;;;;;;;1.02;76.25;100138.69;1709024;84;21287;-69
2022/04/23 03:32:27;;;;;;;73.85;42.43;;;;;;;1.00;76.31;100135.33;1715204;82;21027;-69
2022/04/23 03:34:53;;;;;;;76.72;42.53;;;;;;;1.01;76.35;100134.38;1746257;82;21822;-69
2022/04/23 03:37:19;;;;;;;72.05;42.78;;;;;;;1.05;76.40;100137.14;1721536;83;21165;-69
2022/04/23 03:39:45;;;;;;;77.30;44.45;;;;;;;1.06;76.47;100136.16;1721734;83;21044;-69
2022/04/23 03:42:11;;;;;;;72.35;43.30;;;;;;;1.09;76.53;100135.92;1721608;82;21052;-69
2022/04/23 03:44:37;;;;;;;69.77;42.23;;;;;;;1.10;76.58;100133.67;1721630;83;21513;-69
2022/04/23 03:47:04;;;;;;;81.63;43.20;;;;;;;1.11;76.63;100133.20;1721944;83;22114;-69
2022/04/23 03:49:30;;;;;;;71.85;43.58;;;;;;;1.13;76.67;100136.06;1722300;82;21565;-69
2022/04/23 03:51:57;;;;;;;72.25;42.85;;;;;;;1.14;76.71;100135.59;1721457;83;21461;-69
2022/04/23 03:54:23;;;;;;;73.87;43.55;;;;;;;1.15;76.74;100142.05;1721621;83;21052;-69
2022/04/23 03:56:49;;;;;;;76.53;44.40;;;;;;;1.16;76.78;100138.45;1695223;83;20993;-69
2022/04/23 03:59:20;;;;;;;72.35;44.13;;;;;;;1.16;76.82;100139.77;1746676;82;21141;-69
2022/04/23 04:01:43;;;;;;;85.28;44.90;;;;;;;1.20;76.87;100141.20;1750503;82;21003;-69
2022/04/23 04:04:09;;;;;;;76.92;44.93;;;;;;;1.22;76.89;100138.01;1750990;82;21035;-69
2022/04/23 04:06:35;;;;;;;77.67;43.45;;;;;;;1.26;76.93;100138.14;1741545;82;20987;-70
2022/04/23 04:09:01;;;;;;;84.65;45.20;;;;;;;1.24;76.96;100138.71;1742070;82;20915;-70
2022/04/23 04:12:00;;;;;;;75.32;42.93;;;;;;;1.25;76.99;100140.39;1741590;82;21155;-69
2022/04/23 04:13:55;;;;;;;69.17;44.55;;;;;;;1.31;77.04;100139.91;1743372;80;20985;-69
2022/04/23 04:16:22;;;;;;;76.20;46.55;;;;;;;1.40;77.06;100140.54;1795839;79;21076;-69
2022/04/23 04:18:48;;;;;;;80.53;46.02;;;;;;;1.51;77.11;100137.89;1777323;79;20973;-69
2022/04/23 04:21:15;;;;;;;83.52;50.92;;;;;;;1.67;77.18;100136.71;1764190;80;21034;-69
2022/04/23 04:23:41;;;;;;;78.20;47.80;;;;;;;2.24;77.40;100137.84;1764265;81;21429;-69
2022/04/23 04:26:07;;;;;;;73.37;43.02;;;;;;;3.33;77.73;100140.56;1764159;81;20971;-70
2022/04/23 04:28:34;;;;;;;78.42;39.75;;;;;;;4.29;77.80;100135.66;1764327;80;21020;-70
2022/04/23 04:33:44;;;;;;;60.78;38.50;;;;;;;5.94;77.60;100129.51;1771428;80;21504;-69
2022/04/23 04:36:10;;;;;;;52.78;37.03;;;;;;;6.93;77.21;100132.00;1791932;78;21855;-70
2022/04/23 04:38:36;;;;;;;59.08;36.80;;;;;;;7.60;76.82;100128.34;1795364;80;20955;-70
2022/04/23 04:41:04;;;;;;;55.10;37.42;;;;;;;8.05;76.25;100130.22;1795605;80;20990;-70
2022/04/23 04:43:31;;;;;;;58.40;37.65;;;;;;;7.73;75.26;100134.05;1795308;80;20994;-70
2022/04/23 04:45:57;;;;;;;61.73;39.20;;;;;;;7.82;75.34;100127.77;1795748;80;21506;-70
2022/04/23 04:48:23;;;;;;;58.00;36.95;;;;;;;8.49;75.72;100127.70;1781941;80;21809;-70
2022/04/23 04:50:49;;;;;;;56.13;37.10;;;;;;;9.27;75.49;100128.08;1766961;80;21056;-70
2022/04/23 04:53:15;;;;;;;63.00;40.85;;;;;;;9.92;74.86;100123.94;1795604;80;20958;-70
2022/04/23 04:55:41;;;;;;;67.25;41.73;;;;;;;10.57;74.08;100122.28;1795629;79;20883;-70
2022/04/23 04:58:07;;;;;;;72.90;42.10;;;;;;;11.09;73.45;100123.22;1795598;80;21043;-71
2022/04/23 05:00:33;;;;;;;62.03;40.03;;;;;;;11.44;72.83;100123.89;1795659;79;21110;-70
2022/04/23 05:02:59;;;;;;;63.63;41.13;;;;;;;11.89;71.89;100121.58;1795464;79;20983;-70
2022/04/23 05:05:25;;;;;;;58.83;37.78;;;;;;;11.70;70.68;100122.13;1777158;79;21059;-70
2022/04/23 05:07:51;;;;;;;59.75;39.55;;;;;;;11.17;70.15;100128.49;1764202;80;20885;-71
2022/04/23 05:10:17;;;;;;;58.55;40.28;;;;;;;10.78;70.09;100120.64;1763751;80;21412;-71
2022/04/23 05:12:43;;;;;;;55.35;38.48;;;;;;;10.49;70.23;100126.66;1780766;80;21105;-70
2022/04/23 05:15:11;;;;;;;52.73;35.52;;;;;;;10.49;70.22;100131.98;1797620;79;20974;-70
2022/04/23 05:17:39;;;;;;;46.68;33.63;;;;;;;10.65;70.19;100130.23;1766833;81;21525;-71
2022/04/23 05:20:06;;;;;;;52.33;35.03;;;;;;;10.80;70.04;100125.80;1798706;79;21011;-71
2022/04/23 05:22:32;;;;;;;53.60;35.60;;;;;;;10.93;69.89;100131.36;1798631;79;21018;-71
2022/04/23 05:24:59;;;;;;;48.15;34.40;;;;;;;11.07;69.65;100122.58;1798749;79;21170;-72
2022/04/23 05:27:27;;;;;;;45.30;31.52;;;;;;;11.11;69.35;100123.88;1798153;79;21072;-71
2022/04/23 05:29:53;;;;;;;47.03;34.05;;;;;;;10.98;69.17;100124.47;1798599;79;20955;-72
2022/04/23 05:32:19;;;;;;;88.07;57.10;;;;;;;10.80;69.04;100120.47;1795997;79;21463;-71
2022/04/23 05:34:46;;;;;;;80.17;54.65;;;;;;;10.78;68.71;100121.13;1790391;79;21583;-72
2022/04/23 05:37:11;;;;;;;85.92;59.38;;;;;;;10.66;68.43;100122.57;1768673;79;21799;-72
2022/04/23 05:39:37;;;;;;;62.33;40.88;;;;;;;10.86;68.20;100125.08;1797812;79;20978;-72
2022/04/23 05:42:04;;;;;;;59.75;39.88;;;;;;;11.06;67.77;100120.91;1798133;79;20956;-72
2022/04/23 05:44:30;;;;;;;63.40;43.63;;;;;;;10.99;67.64;100129.31;1798291;79;20967;-71
2022/04/23 05:46:56;;;;;;;58.00;41.30;;;;;;;11.11;67.40;100127.89;1788692;79;20913;-72
2022/04/23 05:49:22;;;;;;;58.75;42.55;;;;;;;11.35;67.04;100119.66;1763476;81;21458;-72
2022/04/23 05:51:49;;;;;;;57.08;41.00;;;;;;;11.53;66.73;100124.15;1763465;81;21446;-72
2022/04/23 05:54:14;;;;;;;66.17;45.48;;;;;;;11.72;66.44;100127.30;1763372;81;22080;-72
2022/04/23 05:56:40;;;;;;;64.20;43.95;;;;;;;11.82;66.11;100123.34;1798411;79;21564;-72
2022/04/23 05:59:06;;;;;;;59.55;43.52;;;;;;;11.95;65.76;100129.39;1798517;79;21676;-72
2022/04/23 06:01:32;;;;;;;63.02;46.08;;;;;;;12.09;65.54;100123.70;1792059;78;21665;-72
2022/04/23 06:03:58;;;;;;;55.75;39.83;;;;;;;12.27;65.29;100123.63;1785761;79;20903;-72
2022/04/23 06:06:24;;;;;;;56.35;36.05;;;;;;;12.39;65.00;100123.45;1784280;79;21040;-72
2022/04/23 06:08:50;;;;;;;51.53;34.65;;;;;;;12.44;64.81;100121.05;1784419;79;20904;-70
2022/04/23 06:11:16;;;;;;;42.78;31.27;;;;;;;12.44;64.32;100121.05;1785117;79;21451;-71
2022/04/23 06:13:42;;;;;;;43.55;31.25;;;;;;;12.45;64.27;100116.00;1773111;79;21752;-71
2022/04/23 06:16:08;;;;;;;42.95;29.82;;;;;;;12.52;64.08;100119.58;1770553;80;20989;-71
2022/04/23 06:18:34;;;;;;;45.17;31.48;;;;;;;12.61;63.85;100119.47;1773699;80;21492;-71
2022/04/23 06:21:00;;;;;;;36.50;26.12;;;;;;;12.75;63.54;100111.90;1788212;80;20931;-71
2022/04/23 06:23:26;;;;;;;33.13;26.40;;;;;;;12.75;63.27;100111.90;1775081;80;21010;-71
2022/04/23 06:25:52;;;;;;;40.52;27.77;;;;;;;12.82;63.08;100114.13;1776204;80;21996;-71
2022/04/23 06:28:18;;;;;;;43.95;29.07;;;;;;;12.74;62.92;100114.25;1769702;80;21020;-71
2022/04/23 06:30:44;;;;;;;49.38;34.03;;;;;;;12.89;62.67;100119.03;1788706;80;20978;-71
2022/04/23 06:33:10;;;;;;;49.90;36.05;;;;;;;13.01;62.35;100116.17;1778126;78;20991;-71
2022/04/23 06:35:36;;;;;;;62.70;41.15;;;;;;;13.11;62.21;100113.19;1778004;79;20991;-71
2022/04/23 06:38:03;;;;;;;30.70;23.45;;;;;;;13.21;62.07;100119.88;1782258;80;21360;-71
2022/04/23 06:40:29;;;;;;;24.52;19.70;;;;;;;13.35;61.72;100122.97;1763086;80;20992;-71
2022/04/23 06:42:55;;;;;;;25.65;21.07;;;;;;;13.37;61.48;100128.15;1758453;81;21389;-71
2022/04/23 06:45:21;;;;;;;33.25;25.45;;;;;;;13.18;61.23;100127.47;1763611;80;20880;-71
2022/04/23 06:47:47;;;;;;;29.65;23.02;;;;;;;13.20;61.03;100127.58;1770760;78;20986;-71
2022/04/23 06:50:13;;;;;;;32.50;25.57;;;;;;;13.19;60.83;100123.27;1786379;78;21093;-72
2022/04/23 06:52:39;;;;;;;50.67;32.60;;;;;;;13.21;60.75;100122.55;1792151;78;21002;-72
2022/04/23 06:55:07;;;;;;;61.35;40.15;;;;;;;13.36;60.54;100124.64;1772513;80;20991;-72
2022/04/23 06:57:37;;;;;;;34.95;26.97;;;;;;;13.40;60.47;100123.23;1773671;79;21005;-72
2022/04/23 07:00:05;;;;;;;37.63;29.00;;;;;;;13.33;59.98;100117.00;1728339;81;21530;-72
2022/04/23 07:02:31;;;;;;;37.08;27.70;;;;;;;13.33;59.98;100117.00;1756211;80;21527;-72
2022/04/23 07:04:58;;;;;;;36.88;25.45;;;;;;;13.19;59.90;100120.59;1742711;80;20867;-72
2022/04/23 07:07:24;;;;;;;33.70;20.92;;;;;;;13.44;59.74;100120.45;1766181;78;21499;-72
2022/04/23 07:09:50;;;;;;;27.13;20.27;;;;;;;13.44;59.74;100120.45;1778139;78;21540;-72
2022/04/23 07:12:16;;;;;;;26.75;19.98;;;;;;;13.35;59.57;100125.66;1761635;80;21474;-72
2022/04/23 07:14:42;;;;;;;26.90;19.07;;;;;;;13.49;59.28;100118.54;1772642;79;21923;-72
2022/04/23 07:17:10;;;;;;;25.57;19.65;;;;;;;13.62;59.51;100103.05;1773823;80;21552;-71
2022/04/23 07:19:40;;;;;;;26.40;19.10;;;;;;;13.62;59.51;100103.05;1735511;81;21507;-72
2022/04/23 07:22:07;;;;;;;;;;;;;;;13.83;59.27;100123.07;1780616;80;21098;-71
2022/04/23 07:24:33;;;;;;;24.37;18.55;;;;;;;13.74;59.01;100126.44;1777820;80;20185;-71
2022/04/23 07:26:59;;;;;;;22.00;17.98;;;;;;;13.81;59.09;100125.97;1778864;79;21125;-71
2022/04/23 07:29:25;;;;;;;22.32;17.42;;;;;;;13.94;58.84;100125.20;1764941;78;21024;-73
2022/04/23 07:31:51;;;;;;;22.85;18.73;;;;;;;13.94;58.69;100122.52;1758286;80;20983;-72
2022/04/23 07:39:47;;;;;;;25.00;16.95;;;;;;;13.88;58.06;100117.95;1786411;79;21157;-72
2022/04/23 07:42:13;;;;;;;20.68;16.07;;;;;;;13.81;57.97;100111.73;1789043;79;21026;-73
2022/04/23 07:44:39;;;;;;;21.50;16.80;;;;;;;14.07;57.78;100107.86;1761501;80;20911;-73
2022/04/23 07:47:06;;;;;;;21.57;16.45;;;;;;;14.01;57.35;100104.61;1765822;79;21074;-72
2022/04/23 07:49:32;;;;;;;22.40;15.88;;;;;;;14.15;57.29;100110.34;1778323;79;20987;-72
2022/04/23 07:51:58;;;;;;;22.50;17.30;;;;;;;14.13;57.21;100105.71;1777846;80;21104;-73
2022/04/23 07:54:24;;;;;;;22.20;17.17;;;;;;;14.35;57.09;100106.45;1789889;80;21041;-72
2022/04/23 07:56:50;;;;;;;21.77;16.80;;;;;;;14.54;56.90;100105.66;1783286;79;20998;-73
2022/04/23 07:59:16;;;;;;;15.88;14.18;;;;;;;14.70;56.77;100107.98;1754792;81;21023;-72
2022/04/23 08:01:43;;;;;;;18.25;14.00;;;;;;;14.83;56.61;100104.48;1777548;78;21009;-72
2022/04/23 08:04:09;;;;;;;17.05;14.20;;;;;;;14.87;56.34;100104.39;1751371;81;21095;-73
2022/04/23 08:06:35;;;;;;;18.52;15.00;;;;;;;14.93;56.10;100096.34;1754562;81;21050;-72
2022/04/23 08:09:01;;;;;;;17.42;14.75;;;;;;;14.93;55.91;100090.97;1754901;81;21019;-72
2022/04/23 08:11:27;;;;;;;18.70;14.65;;;;;;;15.02;55.75;100097.49;1753049;81;21051;-73
2022/04/23 08:13:53;;;;;;;25.10;15.58;;;;;;;15.11;55.55;100099.77;1751440;79;21549;-73
2022/04/23 08:16:20;;;;;;;17.90;13.15;;;;;;;15.04;55.19;100098.09;1748481;81;21500;-73
2022/04/23 08:18:46;;;;;;;18.12;13.65;;;;;;;14.95;54.95;100102.32;1748182;81;21485;-73
2022/04/23 08:21:12;;;;;;;18.98;13.03;;;;;;;15.03;54.84;100098.61;1750095;80;21069;-73
2022/04/23 08:23:38;;;;;;;16.40;13.53;;;;;;;15.22;54.69;100096.45;1745373;81;21107;-73
2022/04/23 08:26:05;;;;;;;19.67;14.40;;;;;;;15.37;54.49;100093.05;1751478;81;21418;-73
2022/04/23 08:31:18;;;;;;;14.47;11.10;;;;;;;15.30;53.99;100092.73;1774672;79;20990;-73
2022/04/23 08:33:59;;;;;;;14.03;11.20;;;;;;;15.34;53.75;100088.06;1779070;79;21041;-73
2022/04/23 08:36:37;;;;;;;14.05;9.80;;;;;;;15.49;53.64;100092.73;1774892;79;21079;-73
2022/04/23 08:39:04;;;;;;;14.05;11.33;;;;;;;15.59;53.30;100089.61;1779455;78;21693;-73
2022/04/23 08:41:31;;;;;;;16.07;14.10;;;;;;;15.72;53.19;100092.80;1778916;78;21775;-73
2022/04/23 08:44:07;;;;;;;15.03;12.18;;;;;;;15.69;52.77;100091.89;1778773;79;21071;-73
2022/04/23 08:46:36;;;;;;;15.23;12.13;;;;;;;15.57;52.60;100093.03;1774235;79;20997;-74
2022/04/23 08:49:13;;;;;;;14.23;11.70;;;;;;;15.21;52.32;100082.70;1781109;79;21020;-73
2022/04/23 08:51:43;;;;;;;13.40;11.08;;;;;;;15.23;52.31;100076.62;1776373;79;21011;-73
2022/04/23 08:54:12;;;;;;;13.88;11.97;;;;;;;15.30;52.06;100074.77;1761134;80;21028;-73
2022/04/23 08:56:41;;;;;;;10.63;9.43;;;;;;;15.28;51.78;100076.81;1753308;80;21101;-73
2022/04/23 08:59:07;;;;;;;11.35;10.15;;;;;;;15.49;51.87;100073.09;1777706;79;21048;-73
2022/04/23 09:01:35;;;;;;;12.20;10.13;;;;;;;15.59;51.64;100079.37;1746765;81;21027;-73
2022/04/23 09:04:01;;;;;;;11.22;9.95;;;;;;;15.46;51.30;100077.00;1748460;80;21040;-73
2022/04/23 09:06:45;;;;;;;14.20;10.40;;;;;;;15.51;51.19;100075.07;1749534;80;21491;-73
2022/04/23 09:09:17;;;;;;;12.13;10.85;;;;;;;15.57;50.99;100077.42;1736713;81;21067;-73
2022/04/23 09:11:46;;;;;;;14.53;10.85;;;;;;;15.48;50.78;100080.84;1750754;81;21573;-73
2022/04/23 09:14:33;;;;;;;10.45;9.45;;;;;;;15.48;50.81;100072.77;1755718;79;21046;-73
2022/04/23 09:25:34;;;;;;;9.00;8.10;;;;;;;15.58;49.51;100069.67;1751586;80;21019;-73
2022/04/23 09:28:20;;;;;;;12.30;8.73;;;;;;;15.60;49.17;100064.91;1749417;81;20994;-73
2022/04/23 09:30:51;;;;;;;10.32;8.23;;;;;;;15.55;48.76;100063.38;1751966;80;21084;-72
2022/04/23 09:33:18;;;;;;;10.15;8.23;;;;;;;15.37;48.40;100064.83;1763047;80;21096;-72
2022/04/23 09:36:02;;;;;;;10.58;8.70;;;;;;;15.49;48.41;100060.48;1702290;82;21031;-73
2022/04/23 09:38:29;;;;;;;10.38;9.33;;;;;;;15.71;48.23;100062.40;1754186;80;21054;-73
2022/04/23 09:40:56;;;;;;;12.40;9.05;;;;;;;15.79;47.95;100058.14;1751448;80;21073;-73
2022/04/23 09:43:31;;;;;;;13.00;9.33;;;;;;;15.72;47.70;100056.51;1742859;81;21106;-73
2022/04/23 09:46:05;;;;;;;11.20;10.10;;;;;;;15.69;47.58;100055.05;1760672;81;21253;-73
2022/04/23 09:48:32;;;;;;;13.28;10.28;;;;;;;15.71;47.47;100060.22;1757048;81;21058;-73
2022/04/23 09:50:59;;;;;;;11.35;9.28;;;;;;;15.80;47.39;100067.01;1761088;81;21066;-72
2022/04/23 09:53:28;;;;;;;10.60;9.00;;;;;;;15.90;47.27;100059.34;1757408;80;21052;-73
2022/04/23 09:56:04;;;;;;;12.18;8.83;;;;;;;16.13;47.25;100047.55;1758348;80;21092;-73
2022/04/23 09:58:29;;;;;;;11.75;9.98;;;;;;;16.18;47.04;100054.47;1733111;80;21192;-73
2022/04/23 10:00:57;;;;;;;13.32;11.08;;;;;;;16.20;46.95;100048.85;1779783;80;21022;-73
2022/04/23 10:03:32;;;;;;;10.38;9.18;;;;;;;16.18;46.82;100037.49;1737405;81;21018;-73
2022/04/23 10:05:59;;;;;;;10.80;8.08;;;;;;;16.14;46.74;100048.38;1738430;80;21026;-73
2022/04/23 10:08:29;;;;;;;9.00;7.20;;;;;;;16.23;46.27;100052.45;1759135;81;21078;-73
2022/04/23 10:11:13;;;;;;;8.63;7.00;;;;;;;16.25;46.15;100039.11;1761012;81;21298;-73
2022/04/23 10:13:40;;;;;;;9.93;7.37;;;;;;;16.40;45.92;100040.97;1752085;81;21010;-73
2022/04/23 10:16:07;;;;;;;9.93;8.70;;;;;;;16.53;45.84;100040.59;1719681;82;21066;-73
2022/04/23 10:18:38;;;;;;;11.73;9.15;;;;;;;16.63;45.65;100040.97;1722167;82;21621;-73
2022/04/23 10:21:08;;;;;;;6.87;6.15;;;;;;;16.67;45.47;100044.88;1724519;82;21443;-73
2022/04/23 10:23:46;;;;;;;7.53;6.72;;;;;;;16.69;45.31;100044.13;1720115;82;21298;-73
2022/04/23 10:26:30;;;;;;;7.53;6.83;;;;;;;16.43;44.94;100051.30;1733376;82;20995;-73
2022/04/23 10:28:56;;;;;;;11.53;8.43;;;;;;;15.85;44.62;100048.39;1733254;82;20991;-73
2022/04/23 10:31:23;;;;;;;10.03;8.53;;;;;;;15.82;44.69;100048.81;1736378;82;21135;-73
2022/04/23 10:33:52;;;;;;;10.05;8.60;;;;;;;16.00;44.62;100048.95;1741009;82;21090;-73
2022/04/23 10:36:22;;;;;;;12.03;9.70;;;;;;;16.03;44.45;100053.08;1728768;81;21137;-72
2022/04/23 10:38:53;;;;;;;11.43;10.30;;;;;;;16.05;44.40;100051.81;1739692;82;26347;-73
2022/04/23 10:41:21;;;;;;;11.90;9.63;;;;;;;16.12;44.32;100037.81;1739627;82;21012;-72
2022/04/23 10:43:54;;;;;;;10.70;9.58;;;;;;;16.23;44.45;100037.14;1702409;83;21561;-72
2022/04/23 10:46:44;;;;;;;10.68;9.28;;;;;;;16.35;44.41;100031.39;1715669;82;20998;-73
2022/04/23 10:49:16;;;;;;;10.68;9.28;;;;;;;16.37;44.36;100037.37;1734748;82;21152;-73
2022/04/23 10:51:56;;;;;;;11.20;9.90;;;;;;;16.25;44.33;100031.05;1755500;81;21070;-73
2022/04/23 10:54:47;;;;;;;12.50;9.90;;;;;;;16.36;44.28;100032.22;1721913;83;21006;-73
2022/04/23 10:57:13;;;;;;;11.15;10.05;;;;;;;16.39;44.17;100022.37;1721485;83;21140;-72
2022/04/23 10:59:48;;;;;;;11.25;10.15;;;;;;;16.42;44.23;100015.20;1736670;82;20982;-73
2022/04/23 11:02:23;;;;;;;13.85;10.53;;;;;;;16.35;44.09;100015.24;1734723;82;21079;-72
2022/04/23 11:13:40;;;;;;;18.42;11.60;;;;;;;16.50;44.26;100011.70;1748969;81;21531;-72
2022/04/23 11:16:10;;;;;;;12.37;10.15;;;;;;;16.88;44.29;100014.89;1747416;80;21149;-73
2022/04/23 11:18:37;;;;;;;12.18;10.45;;;;;;;16.89;44.17;100004.39;1778255;80;21117;-72
2022/04/23 11:21:26;;;;;;;19.40;10.38;;;;;;;16.82;43.94;100000.93;1776981;80;21046;-72
2022/04/23 11:23:54;;;;;;;11.57;10.35;;;;;;;16.89;43.88;100006.56;1736316;80;21082;-73
2022/04/23 11:26:26;;;;;;;11.28;10.08;;;;;;;16.94;43.84;100005.92;1745825;81;21488;-73
2022/04/23 11:28:58;;;;;;;10.82;9.73;;;;;;;16.77;43.74;100004.30;1784601;79;21251;-73
2022/04/23 11:31:24;;;;;;;12.23;10.40;;;;;;;16.56;43.69;100001.98;1753588;81;21072;-72
2022/04/23 11:33:58;;;;;;;12.78;9.58;;;;;;;16.40;43.64;99995.73;1761170;80;21685;-73
2022/04/23 11:36:31;;;;;;;10.10;9.00;;;;;;;16.16;43.62;99993.30;1792862;80;21218;-73
2022/04/23 11:39:00;;;;;;;12.60;9.35;;;;;;;16.10;43.68;99999.55;1775193;80;21497;-72
2022/04/23 11:41:32;;;;;;;10.50;9.40;;;;;;;16.03;43.64;99999.28;1761839;81;21185;-72
2022/04/23 11:43:58;;;;;;;10.55;8.10;;;;;;;15.95;43.69;100001.17;1767533;80;20983;-73
2022/04/23 11:46:24;;;;;;;8.50;7.00;;;;;;;16.00;43.75;99993.82;1792631;80;21201;-73